Private Wetterstation Sandau
Wetterdaten: Freitag, 11.05.2012
Datum Zeit Temp. A. Feuchte A. Luftdruck Regen Wind Richtung Richtung Taupunkt Windchill
11.05.2012 00:01 21,0 C 70 % 1017,4 hPa 0,0 l/m 7,9 km/h (2 Bft) W-SW 247 15,3 C 21,0 C
11.05.2012 00:06 21,0 C 71 % 1017,5 hPa 0,0 l/m 5,8 km/h (2 Bft) S-SW 202 15,5 C 21,0 C
11.05.2012 00:11 20,9 C 71 % 1018,0 hPa 0,0 l/m 5,4 km/h (1 Bft) W-SW 247 15,4 C 20,9 C
11.05.2012 00:16 20,8 C 72 % 1018,0 hPa 0,5 l/m 4,3 km/h (1 Bft) SW 225 15,6 C 20,8 C
11.05.2012 00:21 20,6 C 73 % 1018,4 hPa 0,0 l/m 6,5 km/h (2 Bft) W-NW 292 15,6 C 20,6 C
11.05.2012 00:26 20,4 C 74 % 1018,5 hPa 0,5 l/m 4,3 km/h (1 Bft) W-NW 292 15,6 C 20,4 C
11.05.2012 00:31 20,2 C 75 % 1018,6 hPa 0,0 l/m 5,8 km/h (2 Bft) W-NW 292 15,6 C 20,2 C
11.05.2012 00:36 20,1 C 76 % 1018,4 hPa 0,5 l/m 4,0 km/h (1 Bft) W-SW 247 15,7 C 20,1 C
11.05.2012 00:41 19,9 C 76 % 1018,5 hPa 0,0 l/m 8,6 km/h (2 Bft) W-SW 247 15,5 C 19,9 C
11.05.2012 00:46 19,9 C 77 % 1018,5 hPa 0,0 l/m 4,7 km/h (1 Bft) W-SW 247 15,7 C 19,9 C
11.05.2012 00:51 19,9 C 78 % 1018,5 hPa 0,0 l/m 6,8 km/h (2 Bft) W-SW 247 15,9 C 19,9 C
11.05.2012 00:56 19,8 C 78 % 1018,5 hPa 0,5 l/m 3,2 km/h (1 Bft) W-SW 247 15,8 C 19,8 C
11.05.2012 01:01 19,8 C 79 % 1018,6 hPa 0,0 l/m 3,6 km/h (1 Bft) W-SW 247 16,0 C 19,8 C
11.05.2012 01:06 19,6 C 79 % 1018,7 hPa 0,5 l/m 9,0 km/h (2 Bft) W 270 15,9 C 19,6 C
11.05.2012 01:11 19,6 C 80 % 1018,8 hPa 0,5 l/m 8,6 km/h (2 Bft) SW 225 16,1 C 19,6 C
11.05.2012 01:16 19,5 C 80 % 1018,5 hPa 0,5 l/m 10,8 km/h (2 Bft) W-SW 247 16,0 C 19,5 C
11.05.2012 01:21 19,4 C 81 % 1018,2 hPa 0,0 l/m 6,5 km/h (2 Bft) W-NW 292 16,1 C 19,4 C
11.05.2012 01:26 19,3 C 81 % 1018,0 hPa 0,5 l/m 5,8 km/h (2 Bft) W 270 16,0 C 19,3 C
11.05.2012 01:31 19,3 C 81 % 1017,9 hPa 0,0 l/m 9,0 km/h (2 Bft) W-SW 247 16,0 C 19,3 C
11.05.2012 01:36 19,3 C 82 % 1017,6 hPa 0,0 l/m 5,4 km/h (1 Bft) SW 225 16,1 C 19,3 C
11.05.2012 01:41 19,3 C 82 % 1017,5 hPa 0,0 l/m 2,2 km/h (1 Bft) S-SO 157 16,1 C 19,3 C
11.05.2012 01:46 19,2 C 82 % 1017,6 hPa 0,0 l/m 5,0 km/h (1 Bft) W-SW 247 16,0 C 19,2 C
11.05.2012 01:51 19,1 C 83 % 1018,0 hPa 0,5 l/m 10,8 km/h (2 Bft) S-SW 202 16,1 C 19,1 C
11.05.2012 01:56 19,1 C 83 % 1017,8 hPa 0,0 l/m 10,8 km/h (2 Bft) W-SW 247 16,1 C 19,1 C
11.05.2012 02:01 19,0 C 83 % 1017,8 hPa 0,5 l/m 5,8 km/h (2 Bft) S 180 16,0 C 19,0 C
11.05.2012 02:06 18,9 C 83 % 1017,7 hPa 0,0 l/m 4,7 km/h (1 Bft) S-SO 157 15,9 C 18,9 C
11.05.2012 02:11 18,9 C 84 % 1017,6 hPa 0,0 l/m 10,8 km/h (2 Bft) S-SO 157 16,1 C 18,9 C
11.05.2012 02:16 18,9 C 84 % 1017,7 hPa 0,0 l/m 9,7 km/h (2 Bft) SW 225 16,1 C 18,9 C
11.05.2012 02:21 18,9 C 84 % 1017,5 hPa 0,0 l/m 11,9 km/h (2 Bft) S-SW 202 16,1 C 18,9 C
11.05.2012 02:26 18,8 C 84 % 1017,5 hPa 0,0 l/m 2,9 km/h (1 Bft) S 180 16,0 C 18,8 C
11.05.2012 02:31 18,8 C 84 % 1017,5 hPa 0,0 l/m 7,6 km/h (2 Bft) S-SO 157 16,0 C 18,8 C
11.05.2012 02:36 18,8 C 84 % 1017,7 hPa 0,0 l/m 14,8 km/h (3 Bft) S-SW 202 16,0 C 18,8 C
11.05.2012 02:41 18,8 C 84 % 1017,9 hPa 0,0 l/m 8,3 km/h (2 Bft) SW 225 16,0 C 18,8 C
11.05.2012 02:46 18,9 C 84 % 1017,9 hPa 0,0 l/m 14,0 km/h (3 Bft) S 180 16,1 C 18,9 C
11.05.2012 02:51 18,9 C 84 % 1017,9 hPa 0,5 l/m 13,7 km/h (3 Bft) W-SW 247 16,1 C 18,9 C
11.05.2012 02:56 18,9 C 84 % 1018,5 hPa 0,5 l/m 23,0 km/h (4 Bft) W 270 16,1 C 18,9 C
11.05.2012 03:01 18,9 C 84 % 1018,2 hPa 0,0 l/m 9,7 km/h (2 Bft) S-SW 202 16,1 C 18,9 C
11.05.2012 03:06 18,9 C 85 % 1017,5 hPa 0,5 l/m 13,3 km/h (3 Bft) SW 225 16,3 C 18,9 C
11.05.2012 03:11 18,9 C 85 % 1017,5 hPa 0,5 l/m 14,0 km/h (3 Bft) W 270 16,3 C 18,9 C
11.05.2012 03:16 18,8 C 85 % 1017,7 hPa 0,0 l/m 11,2 km/h (2 Bft) SW 225 16,2 C 18,8 C
11.05.2012 03:21 18,8 C 85 % 1017,5 hPa 0,0 l/m 16,6 km/h (3 Bft) S-SW 202 16,2 C 18,8 C
11.05.2012 03:26 18,7 C 85 % 1017,2 hPa 0,0 l/m 6,1 km/h (2 Bft) SW 225 16,1 C 18,7 C
11.05.2012 03:31 18,7 C 85 % 1017,4 hPa 0,0 l/m 7,9 km/h (2 Bft) SW 225 16,1 C 18,7 C
11.05.2012 03:36 18,6 C 85 % 1017,4 hPa 0,0 l/m 8,3 km/h (2 Bft) S-SW 202 16,0 C 18,6 C
11.05.2012 03:41 18,6 C 85 % 1017,2 hPa 0,0 l/m 6,5 km/h (2 Bft) W 270 16,0 C 18,6 C
11.05.2012 03:46 18,6 C 85 % 1017,2 hPa 0,0 l/m 8,6 km/h (2 Bft) W-SW 247 16,0 C 18,6 C
11.05.2012 03:51 18,6 C 85 % 1017,3 hPa 0,0 l/m 13,3 km/h (3 Bft) W-SW 247 16,0 C 18,6 C
11.05.2012 03:56 18,6 C 85 % 1017,2 hPa 0,5 l/m 2,5 km/h (1 Bft) W-SW 247 16,0 C 18,6 C
11.05.2012 04:01 18,6 C 85 % 1017,3 hPa 0,0 l/m 5,8 km/h (2 Bft) S-SW 202 16,0 C 18,6 C
11.05.2012 04:06 18,5 C 85 % 1017,3 hPa 0,0 l/m 5,8 km/h (2 Bft) W-SW 247 15,9 C 18,5 C
11.05.2012 04:11 18,5 C 85 % 1017,3 hPa 0,0 l/m 9,7 km/h (2 Bft) W-SW 247 15,9 C 18,5 C
11.05.2012 04:16 18,5 C 85 % 1017,4 hPa 0,0 l/m 10,4 km/h (2 Bft) SW 225 15,9 C 18,5 C
11.05.2012 04:21 18,5 C 85 % 1017,2 hPa 0,0 l/m 3,6 km/h (1 Bft) W-SW 247 15,9 C 18,5 C
11.05.2012 04:26 18,5 C 85 % 1017,2 hPa 0,0 l/m 8,6 km/h (2 Bft) W 270 15,9 C 18,5 C
11.05.2012 04:31 18,5 C 85 % 1017,2 hPa 0,0 l/m 14,0 km/h (3 Bft) W-SW 247 15,9 C 18,5 C
11.05.2012 04:36 18,5 C 85 % 1017,1 hPa 0,0 l/m 7,2 km/h (2 Bft) SW 225 15,9 C 18,5 C
11.05.2012 04:41 18,5 C 85 % 1017,2 hPa 0,0 l/m 6,1 km/h (2 Bft) W-SW 247 15,9 C 18,5 C
11.05.2012 04:46 18,5 C 85 % 1017,3 hPa 0,0 l/m 4,3 km/h (1 Bft) S-SW 202 15,9 C 18,5 C
11.05.2012 04:51 18,5 C 85 % 1017,4 hPa 0,0 l/m 5,8 km/h (2 Bft) W-SW 247 15,9 C 18,5 C
11.05.2012 04:56 18,4 C 85 % 1017,4 hPa 0,0 l/m 6,8 km/h (2 Bft) S-SW 202 15,8 C 18,4 C
11.05.2012 05:01 18,4 C 85 % 1017,4 hPa 0,0 l/m 5,4 km/h (1 Bft) S-SW 202 15,8 C 18,4 C
11.05.2012 05:06 18,4 C 85 % 1017,4 hPa 0,0 l/m 11,2 km/h (2 Bft) S-SW 202 15,8 C 18,4 C
11.05.2012 05:11 18,4 C 85 % 1017,4 hPa 0,0 l/m 1,4 km/h (1 Bft) S-SO 157 15,8 C 18,4 C
11.05.2012 05:16 18,3 C 85 % 1017,5 hPa 0,0 l/m 4,0 km/h (1 Bft) S-SW 202 15,7 C 18,3 C
11.05.2012 05:21 18,3 C 85 % 1017,5 hPa 0,0 l/m 5,4 km/h (1 Bft) S-SW 202 15,7 C 18,3 C
11.05.2012 05:26 18,3 C 85 % 1017,6 hPa 0,0 l/m 2,9 km/h (1 Bft) S 180 15,7 C 18,3 C
11.05.2012 05:31 18,2 C 86 % 1017,6 hPa 0,0 l/m 3,6 km/h (1 Bft) S 180 15,8 C 18,2 C
11.05.2012 05:36 18,2 C 86 % 1017,5 hPa 0,0 l/m 1,8 km/h (1 Bft) S-SW 202 15,8 C 18,2 C
11.05.2012 05:41 18,1 C 86 % 1017,5 hPa 0,0 l/m 3,2 km/h (1 Bft) S-SO 157 15,7 C 18,1 C
11.05.2012 05:46 18,1 C 86 % 1017,4 hPa 0,0 l/m 3,2 km/h (1 Bft) S-SO 157 15,7 C 18,1 C
11.05.2012 05:51 18,1 C 86 % 1017,4 hPa 0,0 l/m 3,2 km/h (1 Bft) S 180 15,7 C 18,1 C
11.05.2012 05:56 17,9 C 86 % 1017,4 hPa 0,0 l/m 5,0 km/h (1 Bft) S 180 15,5 C 17,9 C
11.05.2012 06:01 17,9 C 86 % 1017,5 hPa 0,0 l/m 3,6 km/h (1 Bft) S-SW 202 15,5 C 17,9 C
11.05.2012 06:06 17,9 C 86 % 1017,4 hPa 0,0 l/m 4,7 km/h (1 Bft) S 180 15,5 C 17,9 C
11.05.2012 06:11 17,9 C 86 % 1017,4 hPa 0,0 l/m 2,5 km/h (1 Bft) S-SO 157 15,5 C 17,9 C
11.05.2012 06:16 17,9 C 86 % 1017,4 hPa 0,0 l/m 5,0 km/h (1 Bft) S 180 15,5 C 17,9 C
11.05.2012 06:21 17,8 C 86 % 1017,3 hPa 0,0 l/m 2,5 km/h (1 Bft) S-SO 157 15,4 C 17,8 C
11.05.2012 06:26 17,9 C 87 % 1017,2 hPa 0,0 l/m 6,8 km/h (2 Bft) SO 135 15,7 C 17,9 C
11.05.2012 06:31 18,3 C 88 % 1017,3 hPa 0,0 l/m 2,5 km/h (1 Bft) SO 135 16,3 C 18,3 C
11.05.2012 06:36 18,6 C 87 % 1017,3 hPa 0,0 l/m 4,3 km/h (1 Bft) S-SO 157 16,4 C 18,6 C
11.05.2012 06:41 18,9 C 86 % 1017,2 hPa 0,0 l/m 7,2 km/h (2 Bft) S-SW 202 16,5 C 18,9 C
11.05.2012 06:46 19,1 C 85 % 1017,3 hPa 0,0 l/m 7,6 km/h (2 Bft) S-SW 202 16,5 C 19,1 C
11.05.2012 06:51 19,3 C 84 % 1017,4 hPa 0,0 l/m 4,7 km/h (1 Bft) S-SO 157 16,5 C 19,3 C
11.05.2012 06:56 19,4 C 84 % 1017,4 hPa 0,0 l/m 6,5 km/h (2 Bft) S-SO 157 16,6 C 19,4 C
11.05.2012 07:01 19,6 C 84 % 1017,4 hPa 0,0 l/m 4,7 km/h (1 Bft) S-SW 202 16,8 C 19,6 C
11.05.2012 07:06 19,8 C 83 % 1017,5 hPa 0,0 l/m 4,0 km/h (1 Bft) S 180 16,8 C 19,8 C
11.05.2012 07:11 19,8 C 83 % 1017,4 hPa 0,0 l/m 4,3 km/h (1 Bft) S 180 16,8 C 19,8 C
11.05.2012 07:16 19,9 C 83 % 1017,5 hPa 0,0 l/m 4,7 km/h (1 Bft) S-SO 157 16,9 C 19,9 C
11.05.2012 07:21 19,9 C 82 % 1017,5 hPa 0,0 l/m 5,4 km/h (1 Bft) S-SW 202 16,7 C 19,9 C
11.05.2012 07:26 20,0 C 82 % 1017,6 hPa 0,0 l/m 3,2 km/h (1 Bft) S-SO 157 16,8 C 20,0 C
11.05.2012 07:31 20,1 C 82 % 1017,6 hPa 0,0 l/m 3,2 km/h (1 Bft) S 180 16,9 C 20,1 C
11.05.2012 07:36 20,3 C 82 % 1017,7 hPa 0,0 l/m 5,8 km/h (2 Bft) S-SO 157 17,1 C 20,3 C
11.05.2012 07:41 20,4 C 81 % 1017,8 hPa 0,0 l/m 5,8 km/h (2 Bft) SO 135 17,0 C 20,4 C
11.05.2012 07:46 20,3 C 81 % 1017,6 hPa 0,0 l/m 12,2 km/h (2 Bft) S-SO 157 16,9 C 20,3 C
11.05.2012 07:51 20,3 C 81 % 1017,6 hPa 0,0 l/m 5,4 km/h (1 Bft) S-SO 157 16,9 C 20,3 C
11.05.2012 07:56 20,4 C 82 % 1017,5 hPa 0,0 l/m 8,3 km/h (2 Bft) S-SW 202 17,2 C 20,4 C
11.05.2012 08:01 20,6 C 81 % 1017,5 hPa 0,0 l/m 7,2 km/h (2 Bft) S 180 17,2 C 20,6 C
11.05.2012 08:06 20,6 C 80 % 1017,6 hPa 0,0 l/m 3,6 km/h (1 Bft) S 180 17,0 C 20,6 C
11.05.2012 08:11 20,5 C 80 % 1017,8 hPa 0,0 l/m 3,6 km/h (1 Bft) S-SW 202 16,9 C 20,5 C
11.05.2012 08:16 20,6 C 81 % 1017,6 hPa 0,0 l/m 3,6 km/h (1 Bft) SW 225 17,2 C 20,6 C
11.05.2012 08:21 20,8 C 80 % 1017,6 hPa 0,0 l/m 4,0 km/h (1 Bft) W-SW 247 17,2 C 20,8 C
11.05.2012 08:26 20,9 C 80 % 1017,7 hPa 0,0 l/m 5,8 km/h (2 Bft) S 180 17,3 C 20,9 C
11.05.2012 08:31 21,2 C 79 % 1017,7 hPa 0,0 l/m 15,5 km/h (3 Bft) S-SW 202 17,4 C 21,2 C
11.05.2012 08:36 21,4 C 78 % 1017,8 hPa 0,0 l/m 11,9 km/h (2 Bft) SW 225 17,4 C 21,4 C
11.05.2012 08:41 21,6 C 78 % 1017,8 hPa 0,0 l/m 8,6 km/h (2 Bft) W-SW 247 17,6 C 21,6 C
11.05.2012 08:46 21,5 C 77 % 1017,9 hPa 0,0 l/m 13,3 km/h (3 Bft) W 270 17,3 C 21,5 C
11.05.2012 08:51 21,4 C 76 % 1017,8 hPa 0,0 l/m 20,2 km/h (4 Bft) W-SW 247 17,0 C 21,4 C
11.05.2012 08:56 21,4 C 76 % 1017,9 hPa 0,0 l/m 6,5 km/h (2 Bft) S-SW 202 17,0 C 21,4 C
11.05.2012 09:01 21,5 C 77 % 1017,9 hPa 0,0 l/m 4,0 km/h (1 Bft) S-SW 202 17,3 C 21,5 C
11.05.2012 09:06 21,6 C 77 % 1017,9 hPa 0,0 l/m 8,3 km/h (2 Bft) S 180 17,4 C 21,6 C
11.05.2012 09:11 21,6 C 77 % 1018,0 hPa 0,0 l/m 8,3 km/h (2 Bft) W-SW 247 17,4 C 21,6 C
11.05.2012 09:16 21,6 C 77 % 1017,9 hPa 0,0 l/m 9,4 km/h (2 Bft) W-SW 247 17,4 C 21,6 C
11.05.2012 09:21 21,7 C 77 % 1017,9 hPa 0,0 l/m 9,0 km/h (2 Bft) S-SW 202 17,5 C 21,7 C
11.05.2012 09:26 21,8 C 77 % 1017,8 hPa 0,0 l/m 16,9 km/h (3 Bft) W-SW 247 17,6 C 21,8 C
11.05.2012 09:31 21,9 C 76 % 1018,0 hPa 0,0 l/m 7,9 km/h (2 Bft) W-SW 247 17,5 C 21,9 C
11.05.2012 09:36 22,2 C 75 % 1018,1 hPa 0,0 l/m 6,1 km/h (2 Bft) W-NW 292 17,5 C 22,2 C
11.05.2012 09:41 22,6 C 75 % 1017,9 hPa 0,0 l/m 11,9 km/h (2 Bft) W-SW 247 17,9 C 22,6 C
11.05.2012 09:46 22,9 C 73 % 1018,0 hPa 0,0 l/m 7,6 km/h (2 Bft) S 180 17,8 C 22,9 C
11.05.2012 09:51 23,1 C 72 % 1018,1 hPa 0,0 l/m 9,4 km/h (2 Bft) SW 225 17,8 C 23,1 C
11.05.2012 09:56 23,1 C 71 % 1018,1 hPa 0,0 l/m 17,3 km/h (3 Bft) SW 225 17,5 C 23,1 C
11.05.2012 10:01 23,3 C 71 % 1018,0 hPa 0,0 l/m 14,8 km/h (3 Bft) S 180 17,7 C 23,3 C
11.05.2012 10:06 23,5 C 70 % 1018,0 hPa 0,0 l/m 15,8 km/h (3 Bft) W-SW 247 17,7 C 23,5 C
11.05.2012 10:11 23,6 C 70 % 1018,1 hPa 0,0 l/m 14,4 km/h (3 Bft) W-NW 292 17,8 C 23,6 C
11.05.2012 10:16 23,9 C 69 % 1018,0 hPa 0,0 l/m 18,4 km/h (3 Bft) W-SW 247 17,9 C 23,9 C
11.05.2012 10:21 23,9 C 67 % 1018,0 hPa 0,0 l/m 19,8 km/h (3 Bft) SW 225 17,4 C 23,9 C
11.05.2012 10:26 23,9 C 67 % 1018,1 hPa 0,0 l/m 15,8 km/h (3 Bft) W-SW 247 17,4 C 23,9 C
11.05.2012 10:31 24,1 C 67 % 1018,1 hPa 0,0 l/m 20,5 km/h (4 Bft) W-SW 247 17,6 C 24,1 C
11.05.2012 10:36 24,1 C 67 % 1018,1 hPa 0,0 l/m 8,6 km/h (2 Bft) W-SW 247 17,6 C 24,1 C
11.05.2012 10:41 24,1 C 67 % 1018,1 hPa 0,0 l/m 9,4 km/h (2 Bft) SW 225 17,6 C 24,1 C
11.05.2012 10:46 23,9 C 67 % 1018,0 hPa 0,0 l/m 3,2 km/h (1 Bft) W 270 17,4 C 23,9 C
11.05.2012 10:51 23,8 C 68 % 1018,0 hPa 0,0 l/m 5,0 km/h (1 Bft) S-SO 157 17,5 C 23,8 C
11.05.2012 10:56 23,8 C 69 % 1018,1 hPa 0,0 l/m 6,8 km/h (2 Bft) W 270 17,8 C 23,8 C
11.05.2012 11:01 23,9 C 70 % 1018,0 hPa 0,0 l/m 6,5 km/h (2 Bft) W-SW 247 18,1 C 23,9 C
11.05.2012 11:06 24,1 C 70 % 1018,0 hPa 0,0 l/m 5,8 km/h (2 Bft) W-NW 292 18,3 C 24,1 C
11.05.2012 11:11 23,9 C 70 % 1018,0 hPa 0,0 l/m 2,2 km/h (1 Bft) W-NW 292 18,1 C 23,9 C
11.05.2012 11:16 24,1 C 70 % 1017,9 hPa 0,0 l/m 4,0 km/h (1 Bft) S-SW 202 18,3 C 24,1 C
11.05.2012 11:21 24,3 C 70 % 1017,9 hPa 0,0 l/m 6,8 km/h (2 Bft) W-SW 247 18,5 C 24,3 C
11.05.2012 11:26 24,6 C 68 % 1018,0 hPa 0,0 l/m 9,4 km/h (2 Bft) SW 225 18,3 C 24,6 C
11.05.2012 11:31 24,8 C 68 % 1018,1 hPa 0,0 l/m 13,7 km/h (3 Bft) W-SW 247 18,5 C 24,8 C
11.05.2012 11:36 24,6 C 68 % 1017,9 hPa 0,0 l/m 11,2 km/h (2 Bft) W-SW 247 18,3 C 24,6 C
11.05.2012 11:41 24,5 C 68 % 1017,9 hPa 0,0 l/m 30,2 km/h (5 Bft) NW 315 18,2 C 24,5 C
11.05.2012 11:46 24,3 C 66 % 1017,9 hPa 0,0 l/m 18,0 km/h (3 Bft) W-SW 247 17,5 C 24,3 C
11.05.2012 11:51 24,1 C 67 % 1018,0 hPa 0,0 l/m 11,9 km/h (2 Bft) NW 315 17,6 C 24,1 C
11.05.2012 11:56 23,9 C 67 % 1018,0 hPa 0,0 l/m 7,2 km/h (2 Bft) W 270 17,4 C 23,9 C
11.05.2012 12:01 23,9 C 68 % 1017,9 hPa 0,0 l/m 8,3 km/h (2 Bft) W-NW 292 17,6 C 23,9 C
11.05.2012 12:06 24,1 C 68 % 1017,9 hPa 0,0 l/m 4,7 km/h (1 Bft) W-SW 247 17,8 C 24,1 C
11.05.2012 12:11 24,3 C 69 % 1018,1 hPa 0,0 l/m 4,7 km/h (1 Bft) W-NW 292 18,2 C 24,3 C
11.05.2012 12:16 24,6 C 68 % 1018,1 hPa 0,0 l/m 2,9 km/h (1 Bft) W-SW 247 18,3 C 24,6 C
11.05.2012 12:21 24,6 C 68 % 1018,0 hPa 0,0 l/m 16,6 km/h (3 Bft) SW 225 18,3 C 24,6 C
11.05.2012 12:26 24,6 C 68 % 1018,0 hPa 0,0 l/m 6,5 km/h (2 Bft) W 270 18,3 C 24,6 C
11.05.2012 12:31 24,7 C 68 % 1018,0 hPa 0,0 l/m 7,6 km/h (2 Bft) W 270 18,4 C 24,7 C
11.05.2012 12:36 24,8 C 68 % 1017,8 hPa 0,0 l/m 11,9 km/h (2 Bft) W-SW 247 18,5 C 24,8 C
11.05.2012 12:41 24,9 C 68 % 1018,0 hPa 0,0 l/m 6,5 km/h (2 Bft) W 270 18,6 C 24,9 C
11.05.2012 12:46 25,1 C 67 % 1017,9 hPa 0,0 l/m 6,1 km/h (2 Bft) W 270 18,5 C 25,1 C
11.05.2012 12:51 25,2 C 67 % 1018,0 hPa 0,0 l/m 14,8 km/h (3 Bft) W 270 18,6 C 25,2 C
11.05.2012 12:56 25,3 C 65 % 1017,8 hPa 0,0 l/m 10,8 km/h (2 Bft) W 270 18,2 C 25,3 C
11.05.2012 13:01 25,3 C 65 % 1017,9 hPa 0,0 l/m 5,4 km/h (1 Bft) W 270 18,2 C 25,3 C
11.05.2012 13:06 25,3 C 65 % 1018,0 hPa 0,0 l/m 4,7 km/h (1 Bft) W-NW 292 18,2 C 25,3 C
11.05.2012 13:11 25,3 C 65 % 1017,9 hPa 0,0 l/m 4,3 km/h (1 Bft) SW 225 18,2 C 25,3 C
11.05.2012 13:16 25,2 C 65 % 1017,9 hPa 0,0 l/m 8,3 km/h (2 Bft) W 270 18,1 C 25,2 C
11.05.2012 13:21 25,2 C 64 % 1017,9 hPa 0,0 l/m 11,5 km/h (2 Bft) W 270 17,9 C 25,2 C
11.05.2012 13:26 25,1 C 64 % 1017,9 hPa 0,0 l/m 8,6 km/h (2 Bft) W 270 17,8 C 25,1 C
11.05.2012 13:31 24,9 C 64 % 1017,9 hPa 0,0 l/m 5,4 km/h (1 Bft) SW 225 17,6 C 24,9 C
11.05.2012 13:36 24,9 C 64 % 1017,8 hPa 0,0 l/m 6,8 km/h (2 Bft) W-SW 247 17,6 C 24,9 C
11.05.2012 13:41 24,8 C 64 % 1017,8 hPa 0,0 l/m 16,6 km/h (3 Bft) W-SW 247 17,5 C 24,8 C
11.05.2012 13:46 24,7 C 63 % 1017,6 hPa 0,0 l/m 10,4 km/h (2 Bft) W 270 17,2 C 24,7 C
11.05.2012 13:51 24,7 C 63 % 1017,8 hPa 0,0 l/m 5,8 km/h (2 Bft) W-SW 247 17,2 C 24,7 C
11.05.2012 13:56 24,8 C 62 % 1017,9 hPa 0,0 l/m 12,6 km/h (3 Bft) W 270 17,0 C 24,8 C
11.05.2012 14:01 24,8 C 62 % 1018,0 hPa 0,0 l/m 13,0 km/h (3 Bft) SW 225 17,0 C 24,8 C
11.05.2012 14:06 24,8 C 61 % 1018,1 hPa 0,0 l/m 4,0 km/h (1 Bft) W 270 16,8 C 24,8 C
11.05.2012 14:11 24,8 C 60 % 1018,0 hPa 0,0 l/m 29,2 km/h (5 Bft) SW 225 16,5 C 24,8 C
11.05.2012 14:16 24,8 C 59 % 1018,2 hPa 0,0 l/m 15,5 km/h (3 Bft) W 270 16,2 C 24,8 C
11.05.2012 14:21 24,8 C 59 % 1018,2 hPa 0,0 l/m 18,4 km/h (3 Bft) W-SW 247 16,2 C 24,8 C
11.05.2012 14:26 24,7 C 59 % 1018,2 hPa 0,0 l/m 9,4 km/h (2 Bft) W-NW 292 16,1 C 24,7 C
11.05.2012 14:31 24,6 C 59 % 1018,2 hPa 0,0 l/m 11,5 km/h (2 Bft) SW 225 16,0 C 24,6 C
11.05.2012 14:36 24,4 C 59 % 1018,3 hPa 0,0 l/m 10,8 km/h (2 Bft) W 270 15,9 C 24,4 C
11.05.2012 14:41 24,3 C 59 % 1018,0 hPa 0,0 l/m 17,3 km/h (3 Bft) W-SW 247 15,8 C 24,3 C
11.05.2012 14:46 24,1 C 59 % 1017,9 hPa 0,0 l/m 15,1 km/h (3 Bft) W 270 15,6 C 24,1 C
11.05.2012 14:51 23,9 C 60 % 1017,9 hPa 0,0 l/m 14,4 km/h (3 Bft) SW 225 15,7 C 23,9 C
11.05.2012 14:56 23,8 C 61 % 1017,9 hPa 0,0 l/m 9,7 km/h (2 Bft) SW 225 15,8 C 23,8 C
11.05.2012 15:01 23,5 C 62 % 1017,9 hPa 0,0 l/m 5,8 km/h (2 Bft) NW 315 15,8 C 23,5 C
11.05.2012 15:06 23,4 C 62 % 1018,1 hPa 0,0 l/m 4,0 km/h (1 Bft) W-SW 247 15,7 C 23,4 C
11.05.2012 15:11 23,3 C 63 % 1018,1 hPa 0,0 l/m 5,0 km/h (1 Bft) W 270 15,9 C 23,3 C
11.05.2012 15:16 23,2 C 64 % 1017,9 hPa 0,0 l/m 16,2 km/h (3 Bft) W-SW 247 16,0 C 23,2 C
11.05.2012 15:21 23,1 C 65 % 1018,0 hPa 0,0 l/m 5,4 km/h (1 Bft) W 270 16,2 C 23,1 C
11.05.2012 15:26 23,0 C 65 % 1018,0 hPa 0,0 l/m 6,1 km/h (2 Bft) W-SW 247 16,1 C 23,0 C
11.05.2012 15:31 22,9 C 65 % 1018,1 hPa 0,0 l/m 5,0 km/h (1 Bft) W 270 16,0 C 22,9 C
11.05.2012 15:36 22,8 C 66 % 1018,0 hPa 0,0 l/m 14,4 km/h (3 Bft) W-SW 247 16,1 C 22,8 C
11.05.2012 15:41 22,8 C 66 % 1018,0 hPa 0,0 l/m 9,7 km/h (2 Bft) SW 225 16,1 C 22,8 C
11.05.2012 15:46 22,8 C 67 % 1018,0 hPa 0,0 l/m 4,3 km/h (1 Bft) W-SW 247 16,3 C 22,8 C
11.05.2012 15:51 22,8 C 67 % 1018,2 hPa 0,0 l/m 11,2 km/h (2 Bft) W 270 16,3 C 22,8 C
11.05.2012 15:56 22,6 C 67 % 1018,2 hPa 0,0 l/m 14,0 km/h (3 Bft) W 270 16,2 C 22,6 C
11.05.2012 16:01 22,7 C 67 % 1018,2 hPa 0,0 l/m 12,2 km/h (2 Bft) W-SW 247 16,2 C 22,7 C
11.05.2012 16:06 22,6 C 67 % 1018,3 hPa 0,0 l/m 11,5 km/h (2 Bft) W-SW 247 16,2 C 22,6 C
11.05.2012 16:11 22,7 C 67 % 1018,3 hPa 0,0 l/m 10,8 km/h (2 Bft) W 270 16,2 C 22,7 C
11.05.2012 16:16 22,7 C 67 % 1018,6 hPa 0,0 l/m 10,4 km/h (2 Bft) W-NW 292 16,2 C 22,7 C
11.05.2012 16:21 22,6 C 66 % 1018,7 hPa 0,0 l/m 10,1 km/h (2 Bft) W 270 15,9 C 22,6 C
11.05.2012 16:26 22,6 C 66 % 1018,7 hPa 0,0 l/m 8,3 km/h (2 Bft) W-SW 247 15,9 C 22,6 C
11.05.2012 16:31 22,5 C 67 % 1018,6 hPa 0,0 l/m 8,3 km/h (2 Bft) W 270 16,1 C 22,5 C
11.05.2012 16:36 22,4 C 68 % 1018,5 hPa 0,0 l/m 8,3 km/h (2 Bft) N-NW 337 16,2 C 22,4 C
11.05.2012 16:41 22,2 C 68 % 1018,6 hPa 0,0 l/m 7,2 km/h (2 Bft) W 270 16,0 C 22,2 C
11.05.2012 16:46 21,9 C 69 % 1018,8 hPa 0,0 l/m 21,2 km/h (4 Bft) W-NW 292 15,9 C 21,9 C
11.05.2012 16:51 21,3 C 71 % 1018,7 hPa 0,0 l/m 12,2 km/h (2 Bft) W 270 15,8 C 21,3 C
11.05.2012 16:56 21,0 C 73 % 1018,8 hPa 0,0 l/m 8,3 km/h (2 Bft) W-NW 292 16,0 C 21,0 C
11.05.2012 17:01 20,7 C 74 % 1018,8 hPa 0,0 l/m 6,5 km/h (2 Bft) W 270 15,9 C 20,7 C
11.05.2012 17:06 20,4 C 76 % 1018,7 hPa 0,5 l/m 12,6 km/h (3 Bft) W-NW 292 16,0 C 20,4 C
11.05.2012 17:11 20,3 C 76 % 1018,6 hPa 0,0 l/m 4,0 km/h (1 Bft) S-SO 157 15,9 C 20,3 C
11.05.2012 17:16 20,3 C 77 % 1018,6 hPa 0,0 l/m 14,4 km/h (3 Bft) NW 315 16,1 C 20,3 C
11.05.2012 17:21 20,1 C 78 % 1018,6 hPa 0,0 l/m 4,3 km/h (1 Bft) W 270 16,1 C 20,1 C
11.05.2012 17:26 20,0 C 78 % 1018,8 hPa 0,0 l/m 10,8 km/h (2 Bft) W 270 16,0 C 20,0 C
11.05.2012 17:31 19,9 C 79 % 1018,7 hPa 0,0 l/m 5,8 km/h (2 Bft) W 270 16,1 C 19,9 C
11.05.2012 17:36 19,9 C 79 % 1018,8 hPa 0,0 l/m 5,4 km/h (1 Bft) S-SW 202 16,1 C 19,9 C
11.05.2012 17:41 19,9 C 79 % 1018,7 hPa 0,0 l/m 8,6 km/h (2 Bft) NW 315 16,1 C 19,9 C
11.05.2012 17:46 19,9 C 80 % 1018,8 hPa 0,0 l/m 9,7 km/h (2 Bft) W-SW 247 16,3 C 19,9 C
11.05.2012 17:51 19,9 C 80 % 1018,9 hPa 0,0 l/m 6,5 km/h (2 Bft) W-SW 247 16,3 C 19,9 C
11.05.2012 17:56 20,0 C 80 % 1019,0 hPa 0,0 l/m 8,3 km/h (2 Bft) W 270 16,4 C 20,0 C
11.05.2012 18:01 20,1 C 80 % 1019,1 hPa 0,0 l/m 13,3 km/h (3 Bft) W-SW 247 16,5 C 20,1 C
11.05.2012 18:06 20,0 C 80 % 1019,0 hPa 0,0 l/m 7,9 km/h (2 Bft) W-SW 247 16,4 C 20,0 C
11.05.2012 18:11 19,9 C 80 % 1019,1 hPa 0,0 l/m 9,7 km/h (2 Bft) W 270 16,3 C 19,9 C
11.05.2012 18:16 19,8 C 79 % 1018,9 hPa 0,0 l/m 7,6 km/h (2 Bft) W-NW 292 16,0 C 19,8 C
11.05.2012 18:21 19,7 C 79 % 1019,0 hPa 0,0 l/m 7,6 km/h (2 Bft) W 270 16,0 C 19,7 C
11.05.2012 18:26 19,6 C 79 % 1018,9 hPa 0,0 l/m 5,0 km/h (1 Bft) W-SW 247 15,9 C 19,6 C
11.05.2012 18:31 19,5 C 79 % 1018,7 hPa 0,0 l/m 4,3 km/h (1 Bft) NW 315 15,8 C 19,5 C
11.05.2012 18:36 19,4 C 79 % 1018,7 hPa 0,0 l/m 8,6 km/h (2 Bft) W 270 15,7 C 19,4 C
11.05.2012 18:41 19,4 C 79 % 1018,7 hPa 0,0 l/m 6,5 km/h (2 Bft) S-SW 202 15,7 C 19,4 C
11.05.2012 18:46 19,4 C 79 % 1018,6 hPa 0,0 l/m 7,6 km/h (2 Bft) W-SW 247 15,7 C 19,4 C
11.05.2012 18:51 19,4 C 79 % 1018,6 hPa 0,0 l/m 10,1 km/h (2 Bft) W-NW 292 15,7 C 19,4 C
11.05.2012 18:56 19,3 C 79 % 1018,6 hPa 0,0 l/m 6,5 km/h (2 Bft) W 270 15,6 C 19,3 C
11.05.2012 19:01 19,2 C 79 % 1018,6 hPa 0,0 l/m 5,8 km/h (2 Bft) SO 135 15,5 C 19,2 C
11.05.2012 19:06 19,1 C 79 % 1018,6 hPa 0,0 l/m 13,3 km/h (3 Bft) NW 315 15,4 C 19,1 C
11.05.2012 19:11 19,0 C 79 % 1018,6 hPa 0,0 l/m 9,7 km/h (2 Bft) NW 315 15,3 C 19,0 C
11.05.2012 19:16 18,9 C 80 % 1018,6 hPa 0,0 l/m 14,4 km/h (3 Bft) W-NW 292 15,4 C 18,9 C
11.05.2012 19:21 18,9 C 80 % 1018,6 hPa 0,0 l/m 10,8 km/h (2 Bft) NW 315 15,4 C 18,9 C
11.05.2012 19:26 18,8 C 81 % 1018,5 hPa 0,0 l/m 18,0 km/h (3 Bft) W 270 15,5 C 18,8 C
11.05.2012 19:31 18,5 C 79 % 1018,5 hPa 0,0 l/m 17,6 km/h (3 Bft) NW 315 14,8 C 18,5 C
11.05.2012 19:36 18,4 C 79 % 1018,6 hPa 0,0 l/m 11,9 km/h (2 Bft) W-NW 292 14,7 C 18,4 C
11.05.2012 19:41 18,3 C 80 % 1018,6 hPa 0,0 l/m 10,8 km/h (2 Bft) W-NW 292 14,8 C 18,3 C
11.05.2012 19:46 18,2 C 80 % 1018,7 hPa 0,0 l/m 7,2 km/h (2 Bft) W-NW 292 14,7 C 18,2 C
11.05.2012 19:51 18,2 C 81 % 1018,7 hPa 0,0 l/m 15,5 km/h (3 Bft) NW 315 14,9 C 18,2 C
11.05.2012 19:56 18,1 C 81 % 1018,9 hPa 0,0 l/m 4,0 km/h (1 Bft) W 270 14,8 C 18,1 C
11.05.2012 20:01 18,1 C 82 % 1019,0 hPa 0,0 l/m 4,7 km/h (1 Bft) W 270 15,0 C 18,1 C
11.05.2012 20:06 17,9 C 82 % 1019,2 hPa 0,0 l/m 11,9 km/h (2 Bft) NW 315 14,8 C 17,9 C
11.05.2012 20:11 17,9 C 83 % 1019,2 hPa 0,0 l/m 8,3 km/h (2 Bft) N-NW 337 15,0 C 17,9 C
11.05.2012 20:16 17,6 C 82 % 1019,2 hPa 0,0 l/m 5,0 km/h (1 Bft) W 270 14,5 C 17,6 C
11.05.2012 20:21 17,4 C 82 % 1019,4 hPa 0,0 l/m 15,8 km/h (3 Bft) W-NW 292 14,3 C 17,4 C
11.05.2012 20:26 17,3 C 81 % 1019,5 hPa 0,0 l/m 8,3 km/h (2 Bft) W 270 14,0 C 17,3 C
11.05.2012 20:31 17,2 C 80 % 1019,6 hPa 0,0 l/m 10,4 km/h (2 Bft) W 270 13,7 C 17,2 C
11.05.2012 20:36 17,1 C 80 % 1019,7 hPa 0,0 l/m 8,6 km/h (2 Bft) W-NW 292 13,6 C 17,1 C
11.05.2012 20:41 16,9 C 79 % 1019,7 hPa 0,0 l/m 6,1 km/h (2 Bft) W-NW 292 13,2 C 16,9 C
11.05.2012 20:46 16,9 C 78 % 1019,9 hPa 0,0 l/m 13,3 km/h (3 Bft) NW 315 13,0 C 16,9 C
11.05.2012 20:51 16,8 C 78 % 1019,9 hPa 0,0 l/m 11,9 km/h (2 Bft) W-NW 292 12,9 C 16,8 C
11.05.2012 20:56 16,8 C 78 % 1020,1 hPa 0,0 l/m 14,8 km/h (3 Bft) W-NW 292 12,9 C 16,8 C
11.05.2012 21:01 16,6 C 77 % 1020,1 hPa 0,0 l/m 20,5 km/h (4 Bft) W-NW 292 12,5 C 16,6 C
11.05.2012 21:06 16,4 C 77 % 1020,3 hPa 0,0 l/m 19,4 km/h (3 Bft) NW 315 12,4 C 16,4 C
11.05.2012 21:11 16,1 C 78 % 1020,6 hPa 0,0 l/m 14,0 km/h (3 Bft) W 270 12,3 C 16,1 C
11.05.2012 21:16 15,9 C 78 % 1020,6 hPa 0,0 l/m 16,2 km/h (3 Bft) W-NW 292 12,1 C 15,9 C
11.05.2012 21:21 15,7 C 79 % 1020,8 hPa 0,0 l/m 5,8 km/h (2 Bft) W 270 12,1 C 15,7 C
11.05.2012 21:26 15,5 C 80 % 1020,8 hPa 0,0 l/m 9,0 km/h (2 Bft) W-NW 292 12,1 C 15,5 C
11.05.2012 21:31 15,4 C 81 % 1020,7 hPa 0,0 l/m 9,4 km/h (2 Bft) NW 315 12,2 C 15,4 C
11.05.2012 21:36 15,4 C 81 % 1020,9 hPa 0,0 l/m 5,0 km/h (1 Bft) W 270 12,2 C 15,4 C
11.05.2012 21:41 15,3 C 82 % 1020,9 hPa 0,0 l/m 11,2 km/h (2 Bft) W 270 12,2 C 15,3 C
11.05.2012 21:46 15,2 C 82 % 1020,9 hPa 0,0 l/m 9,4 km/h (2 Bft) W 270 12,1 C 15,2 C
11.05.2012 21:51 15,2 C 82 % 1020,8 hPa 0,0 l/m 5,0 km/h (1 Bft) W-SW 247 12,1 C 15,2 C
11.05.2012 21:56 15,1 C 82 % 1021,0 hPa 0,0 l/m 2,5 km/h (1 Bft) W 270 12,0 C 15,1 C
11.05.2012 22:01 15,1 C 83 % 1021,0 hPa 0,0 l/m 4,7 km/h (1 Bft) W-NW 292 12,2 C 15,1 C
11.05.2012 22:06 15,0 C 83 % 1021,0 hPa 0,0 l/m 6,5 km/h (2 Bft) W 270 12,1 C 15,0 C
11.05.2012 22:11 14,9 C 83 % 1021,1 hPa 0,0 l/m 6,1 km/h (2 Bft) NW 315 12,0 C 14,9 C
11.05.2012 22:16 14,9 C 83 % 1021,1 hPa 0,0 l/m 9,0 km/h (2 Bft) W-NW 292 12,0 C 14,9 C
11.05.2012 22:21 14,9 C 83 % 1021,1 hPa 0,0 l/m 5,0 km/h (1 Bft) W 270 12,0 C 14,9 C
11.05.2012 22:26 14,9 C 83 % 1021,2 hPa 0,0 l/m 13,7 km/h (3 Bft) W-NW 292 12,0 C 14,9 C
11.05.2012 22:31 14,9 C 83 % 1021,3 hPa 0,0 l/m 5,8 km/h (2 Bft) W-NW 292 12,0 C 14,9 C
11.05.2012 22:36 14,9 C 83 % 1021,5 hPa 0,0 l/m 5,4 km/h (1 Bft) NW 315 12,0 C 14,9 C
11.05.2012 22:41 14,9 C 83 % 1021,5 hPa 0,0 l/m 13,7 km/h (3 Bft) W-NW 292 12,0 C 14,9 C
11.05.2012 22:46 14,9 C 83 % 1021,4 hPa 0,0 l/m 4,0 km/h (1 Bft) W-NW 292 12,0 C 14,9 C
11.05.2012 22:51 14,9 C 83 % 1021,6 hPa 0,0 l/m 9,4 km/h (2 Bft) W 270 12,0 C 14,9 C
11.05.2012 22:56 14,9 C 83 % 1021,6 hPa 0,5 l/m 5,8 km/h (2 Bft) W-NW 292 12,0 C 14,9 C
11.05.2012 23:01 14,9 C 83 % 1021,6 hPa 0,0 l/m 6,5 km/h (2 Bft) NW 315 12,0 C 14,9 C
11.05.2012 23:06 14,8 C 83 % 1021,7 hPa 0,0 l/m 0,0 km/h (0 Bft) NW 315 11,9 C 14,8 C
11.05.2012 23:11 14,6 C 84 % 1021,8 hPa 0,0 l/m 1,1 km/h (1 Bft) N-NW 337 11,9 C 14,6 C
11.05.2012 23:16 14,5 C 83 % 1021,8 hPa 0,0 l/m 0,0 km/h (0 Bft) W 270 11,6 C 14,5 C
11.05.2012 23:21 14,5 C 83 % 1022,0 hPa 0,0 l/m 2,2 km/h (1 Bft) NW 315 11,6 C 14,5 C
11.05.2012 23:26 14,5 C 83 % 1021,8 hPa 0,0 l/m 0,0 km/h (0 Bft) W 270 11,6 C 14,5 C
11.05.2012 23:31 14,4 C 83 % 1021,9 hPa 0,0 l/m 7,6 km/h (2 Bft) W-NW 292 11,5 C 14,4 C
11.05.2012 23:36 14,4 C 83 % 1021,8 hPa 0,0 l/m 7,2 km/h (2 Bft) W 270 11,5 C 14,4 C
11.05.2012 23:41 14,3 C 83 % 1021,9 hPa 0,0 l/m 7,2 km/h (2 Bft) W-NW 292 11,5 C 14,3 C
11.05.2012 23:46 14,2 C 83 % 1021,9 hPa 0,0 l/m 0,0 km/h (0 Bft) W 270 11,4 C 14,2 C
11.05.2012 23:51 14,2 C 82 % 1021,9 hPa 0,0 l/m 4,0 km/h (1 Bft) NW 315 11,2 C 14,2 C
11.05.2012 23:56 14,2 C 82 % 1022,0 hPa 0,0 l/m 6,1 km/h (2 Bft) NW 315 11,2 C 14,2 C
_ Min-Zeit 23:46 14:16 04:36 - 23:06 - - 23:51 23:46
Minimum _ 14,2 C 59 % 1017,1 hPa - 0,0 km/h (0 Bft) - - 11,2 C 14,2 C
_ Max-Zeit 12:56 06:31 23:21 00:16 11:41 - - 12:51 12:56
Maximum _ 25,3 C 88 % 1022,0 hPa 0,5 l/m 30,2 km/h
NW (5 Bft)
- - 18,6 C 25,3 C
Durchschnitt _ 20,2 C 77 % 1018,5 hPa #8,8 l/m 8,6 km/h (2 Bft) W-SW - 15,8 C 20,2 C
(c) by David Heller